Time;durP1;ratioP1;P1;durP2;ratioP2;P2;SDS_P1;SDS_P2;PMS_P1;PMS_P2;Temp;Humidity;BMP_temperature;BMP_pressure;BME280_temperature;BME280_humidity;BME280_pressure;Samples;Min_cycle;Max_cycle;Signal;HPM_P1;HPM_P2
2022/04/11 00:01:04;;;;;;;2.47;2.27;;;3.70;99.90;;;;;;5024194;28;20519;-81
2022/04/11 00:03:31;;;;;;;1.80;1.60;;;3.70;99.90;;;;;;5023480;28;20053;-81
2022/04/11 00:05:57;;;;;;;1.57;1.47;;;3.60;99.90;;;;;;5005968;28;20092;-82
2022/04/11 00:08:22;;;;;;;1.40;1.30;;;3.70;99.90;;;;;;5023494;28;20057;-82
2022/04/11 00:10:48;;;;;;;2.47;2.33;;;3.60;99.90;;;;;;5018593;28;20045;-82
2022/04/11 00:13:14;;;;;;;2.77;2.50;;;3.60;99.90;;;;;;5002539;28;20111;-81
2022/04/11 00:15:42;;;;;;;1.80;1.70;;;3.60;99.90;;;;;;5003525;28;20037;-82
2022/04/11 00:18:08;;;;;;;3.47;1.93;;;3.60;99.90;;;;;;5004036;28;20120;-81
2022/04/11 00:20:34;;;;;;;6.23;1.87;;;3.50;99.90;;;;;;4986475;28;20462;-82
2022/04/11 00:23:00;;;;;;;1.33;0.97;;;3.50;99.90;;;;;;5003516;28;20056;-81
2022/04/11 00:25:25;;;;;;;0.93;0.93;;;3.50;99.90;;;;;;4993368;28;20708;-81
2022/04/11 00:27:54;;;;;;;2.53;2.30;;;3.50;99.90;;;;;;5022076;28;20033;-81
2022/04/11 00:30:19;;;;;;;1.73;1.20;;;3.50;99.90;;;;;;5021931;28;20041;-80
2022/04/11 00:32:45;;;;;;;0.77;0.77;;;3.50;99.90;;;;;;5022576;28;20445;-81
2022/04/11 00:35:11;;;;;;;1.23;1.20;;;3.50;99.90;;;;;;5022767;28;20535;-82
2022/04/11 00:37:37;;;;;;;1.03;1.03;;;3.40;99.90;;;;;;5023439;28;20056;-80
2022/04/11 00:40:04;;;;;;;1.07;1.07;;;3.40;99.90;;;;;;5023027;28;20068;-80
2022/04/11 00:42:31;;;;;;;2.27;1.77;;;3.40;99.90;;;;;;5021772;28;20041;-80
2022/04/11 00:44:57;;;;;;;0.77;0.57;;;3.40;99.90;;;;;;5020294;28;20089;-80
2022/04/11 00:47:22;;;;;;;1.40;1.30;;;3.40;99.90;;;;;;5001581;28;20749;-81
2022/04/11 00:49:50;;;;;;;2.13;1.17;;;3.40;99.90;;;;;;5001344;28;20045;-80
2022/04/11 00:52:16;;;;;;;1.80;1.07;;;3.40;99.90;;;;;;5003187;28;20042;-80
2022/04/11 00:54:42;;;;;;;1.33;1.03;;;3.30;99.90;;;;;;5002736;28;20049;-81
2022/04/11 00:57:09;;;;;;;1.27;1.20;;;3.30;99.90;;;;;;4984930;28;20124;-80
2022/04/11 00:59:35;;;;;;;0.73;0.73;;;3.30;99.90;;;;;;5001173;28;20095;-81
2022/04/11 01:02:04;;;;;;;3.83;1.30;;;3.30;99.90;;;;;;4986283;28;20501;-80
2022/04/11 01:04:30;;;;;;;2.37;2.17;;;3.30;99.90;;;;;;5002716;28;20129;-80
2022/04/11 01:06:58;;;;;;;2.20;1.67;;;3.30;99.90;;;;;;5002905;28;20121;-80
2022/04/11 01:09:24;;;;;;;1.63;1.50;;;3.30;99.90;;;;;;5002626;28;20129;-81
2022/04/11 01:11:51;;;;;;;2.40;1.70;;;3.30;99.90;;;;;;5001823;28;20048;-80
2022/04/11 01:14:17;;;;;;;2.20;2.00;;;3.20;99.90;;;;;;5002565;28;20099;-80
2022/04/11 01:16:50;;;;;;;1.23;1.13;;;3.20;99.90;;;;;;5003236;28;20711;-79
2022/04/11 01:19:16;;;;;;;1.07;1.07;;;3.30;99.90;;;;;;5004000;28;20041;-81
2022/04/11 01:21:46;;;;;;;7.77;3.23;;;3.30;99.90;;;;;;5022568;28;20124;-80
2022/04/11 01:24:12;;;;;;;9.73;1.80;;;3.30;99.90;;;;;;5022107;28;20080;-81
2022/04/11 01:26:38;;;;;;;0.90;0.90;;;3.30;99.90;;;;;;5022047;28;20714;-81
2022/04/11 01:29:04;;;;;;;4.40;2.50;;;3.30;99.90;;;;;;5005099;28;20041;-80
2022/04/11 01:31:30;;;;;;;0.90;0.83;;;3.30;99.90;;;;;;5020167;28;20845;-80
2022/04/11 01:33:56;;;;;;;1.53;0.70;;;3.30;99.90;;;;;;5022580;28;20047;-81
2022/04/11 01:36:22;;;;;;;1.47;1.37;;;3.30;99.90;;;;;;5022262;28;20092;-80
2022/04/11 01:38:48;;;;;;;0.93;0.93;;;3.30;99.90;;;;;;5022327;28;20495;-81
2022/04/11 01:41:13;;;;;;;16.13;1.53;;;3.30;99.90;;;;;;5003547;28;20056;-81
2022/04/11 01:43:39;;;;;;;1.07;0.97;;;3.30;99.90;;;;;;5022115;28;20053;-81
2022/04/11 01:46:04;;;;;;;2.00;1.90;;;3.30;99.90;;;;;;5010667;28;20572;-80
2022/04/11 01:48:30;;;;;;;4.40;1.80;;;3.30;99.90;;;;;;5002214;28;20061;-81
2022/04/11 01:50:55;;;;;;;2.73;1.37;;;3.30;99.90;;;;;;5000957;28;20046;-81
2022/04/11 01:53:21;;;;;;;0.77;0.77;;;3.20;99.90;;;;;;5002214;28;20046;-80
2022/04/11 01:55:47;;;;;;;1.57;1.10;;;3.20;99.90;;;;;;5002411;28;20418;-80
2022/04/11 01:58:15;;;;;;;4.37;1.57;;;3.20;99.90;;;;;;5001315;28;20046;-80
2022/04/11 02:00:41;;;;;;;6.23;1.77;;;3.20;99.90;;;;;;5003565;28;20049;-81
2022/04/11 02:03:08;;;;;;;1.13;1.03;;;3.20;99.90;;;;;;5022260;28;20191;-80
2022/04/11 02:05:34;;;;;;;1.80;1.37;;;3.20;99.90;;;;;;5022389;28;20061;-81
2022/04/11 02:08:00;;;;;;;1.43;1.33;;;3.20;99.90;;;;;;5022227;28;20389;-78
2022/04/11 02:10:26;;;;;;;1.93;0.80;;;3.20;99.90;;;;;;5021469;28;20048;-80
2022/04/11 02:12:53;;;;;;;1.80;1.53;;;3.20;99.90;;;;;;5021140;28;20436;-81
2022/04/11 02:15:19;;;;;;;1.47;0.97;;;3.20;99.90;;;;;;5021364;28;20049;-80
2022/04/11 02:17:48;;;;;;;1.83;1.47;;;3.20;99.90;;;;;;5009052;28;20046;-80
2022/04/11 02:20:14;;;;;;;1.50;1.43;;;3.20;99.90;;;;;;5001683;28;20046;-80
2022/04/11 02:22:50;;;;;;;0.57;0.57;;;3.20;99.90;;;;;;5001936;28;20045;-81
2022/04/11 02:25:18;;;;;;;3.57;1.97;;;3.20;99.90;;;;;;5002009;28;20184;-81
2022/04/11 02:27:44;;;;;;;1.40;1.30;;;3.20;99.90;;;;;;5000013;28;20125;-80
2022/04/11 02:30:11;;;;;;;1.13;1.03;;;3.20;99.90;;;;;;4984009;28;20132;-81
2022/04/11 02:32:36;;;;;;;1.47;1.47;;;3.20;99.90;;;;;;5002465;28;20038;-81
2022/04/11 02:35:03;;;;;;;0.90;0.60;;;3.20;99.90;;;;;;5001880;28;20409;-80
2022/04/11 02:37:28;;;;;;;0.80;0.80;;;3.20;99.90;;;;;;5001909;28;20046;-80
2022/04/11 02:39:54;;;;;;;0.93;0.93;;;3.20;99.90;;;;;;4984227;28;20523;-80
2022/04/11 02:42:24;;;;;;;2.43;1.23;;;3.20;99.90;;;;;;5000577;28;20057;-81
2022/04/11 02:44:50;;;;;;;1.13;1.03;;;3.10;99.90;;;;;;5000958;28;20400;-81
2022/04/11 02:47:16;;;;;;;0.50;0.50;;;3.20;99.90;;;;;;5003163;28;20116;-80
2022/04/11 02:49:42;;;;;;;1.87;1.73;;;3.10;99.90;;;;;;5003524;28;20132;-80
2022/04/11 02:52:07;;;;;;;0.90;0.90;;;3.10;99.90;;;;;;5021716;28;20041;-80
2022/04/11 02:54:33;;;;;;;3.40;1.73;;;3.10;99.90;;;;;;5021297;28;20681;-80
2022/04/11 02:56:58;;;;;;;1.17;1.17;;;3.10;99.90;;;;;;5020616;28;20037;-80
2022/04/11 02:59:24;;;;;;;2.80;1.60;;;3.10;99.90;;;;;;5021041;28;20042;-80
2022/04/11 03:01:50;;;;;;;2.50;1.63;;;3.10;99.90;;;;;;5020994;28;20050;-80
2022/04/11 03:04:16;;;;;;;1.97;1.23;;;3.10;99.90;;;;;;5021212;28;20057;-80
2022/04/11 03:06:42;;;;;;;0.70;0.70;;;3.10;99.90;;;;;;5021485;28;20041;-80
2022/04/11 03:09:08;;;;;;;0.90;0.90;;;3.10;99.90;;;;;;5004174;28;20384;-80
2022/04/11 03:11:36;;;;;;;0.80;0.80;;;3.10;99.90;;;;;;5020774;28;20056;-80
2022/04/11 03:14:02;;;;;;;9.27;1.77;;;3.20;99.90;;;;;;5024191;28;20037;-80
2022/04/11 03:16:28;;;;;;;5.80;2.20;;;3.20;99.90;;;;;;5023332;28;20052;-81
2022/04/11 03:18:53;;;;;;;3.20;1.53;;;3.20;99.90;;;;;;5024030;28;20116;-80
2022/04/11 03:21:19;;;;;;;3.10;1.67;;;3.20;99.90;;;;;;5024553;28;20495;-81
2022/04/11 03:23:45;;;;;;;1.90;1.73;;;3.20;99.90;;;;;;5007211;28;20046;-80
2022/04/11 03:26:11;;;;;;;1.27;1.27;;;3.20;99.90;;;;;;5023722;28;20439;-81
2022/04/11 03:28:36;;;;;;;1.87;1.57;;;3.20;99.90;;;;;;5024818;28;20128;-80
2022/04/11 03:31:02;;;;;;;1.47;1.17;;;3.20;99.90;;;;;;5024778;28;20120;-80
2022/04/11 03:33:28;;;;;;;1.57;1.47;;;3.20;99.90;;;;;;5024272;28;21214;-80
2022/04/11 03:35:53;;;;;;;1.70;1.60;;;3.20;99.90;;;;;;5024693;28;20050;-80
2022/04/11 03:38:19;;;;;;;0.90;0.90;;;3.20;99.90;;;;;;5024470;28;20136;-81
2022/04/11 03:40:45;;;;;;;1.50;1.40;;;3.20;99.90;;;;;;5006155;28;20042;-78
2022/04/11 03:43:11;;;;;;;1.17;1.13;;;3.20;99.90;;;;;;5023689;28;20073;-81
2022/04/11 03:45:36;;;;;;;1.40;1.00;;;3.20;99.90;;;;;;5016549;28;20041;-80
2022/04/11 03:48:02;;;;;;;1.80;1.60;;;3.20;99.90;;;;;;5020172;28;20536;-80
2022/04/11 03:50:28;;;;;;;1.10;0.93;;;3.20;99.90;;;;;;5023889;28;20613;-81
2022/04/11 03:52:54;;;;;;;1.70;1.60;;;3.30;99.90;;;;;;5006410;28;20121;-80
2022/04/11 03:55:19;;;;;;;1.73;1.63;;;3.30;99.90;;;;;;5023857;28;20145;-80
2022/04/11 03:57:45;;;;;;;1.83;1.73;;;3.30;99.90;;;;;;5023448;28;20087;-80
2022/04/11 04:00:11;;;;;;;1.40;1.30;;;3.30;99.90;;;;;;5023751;28;20431;-80
2022/04/11 04:02:36;;;;;;;2.03;1.93;;;3.30;99.90;;;;;;5024102;28;20103;-80
2022/04/11 04:05:02;;;;;;;1.20;1.20;;;3.30;99.90;;;;;;4990631;28;20563;-81
2022/04/11 04:07:28;;;;;;;2.67;1.60;;;3.30;99.90;;;;;;5004320;28;20045;-80
2022/04/11 04:09:53;;;;;;;2.33;2.03;;;3.30;99.90;;;;;;4986354;28;20133;-80
2022/04/11 04:12:20;;;;;;;1.30;1.20;;;3.40;99.90;;;;;;5003260;28;20042;-80
2022/04/11 04:14:47;;;;;;;0.63;0.63;;;3.40;99.90;;;;;;5004571;28;20057;-81
2022/04/11 04:17:12;;;;;;;2.23;1.23;;;3.40;99.90;;;;;;4986219;28;20441;-80
2022/04/11 04:19:38;;;;;;;1.43;1.43;;;3.40;99.90;;;;;;4986543;28;20038;-80
2022/04/11 04:22:04;;;;;;;0.67;0.67;;;3.40;99.90;;;;;;4986553;28;20738;-80
2022/04/11 04:24:32;;;;;;;1.90;1.70;;;3.40;99.90;;;;;;4985526;28;20681;-80
2022/04/11 04:26:57;;;;;;;1.10;1.10;;;3.40;99.90;;;;;;5003239;28;20034;-80
2022/04/11 04:29:23;;;;;;;1.47;0.80;;;3.40;99.90;;;;;;5003099;28;20041;-80
2022/04/11 04:31:49;;;;;;;1.10;0.90;;;3.40;99.90;;;;;;5003859;28;20125;-80
2022/04/11 04:34:15;;;;;;;1.77;1.67;;;3.40;99.90;;;;;;5003652;28;20046;-80
2022/04/11 04:36:41;;;;;;;0.97;0.67;;;3.40;99.90;;;;;;5003784;28;20046;-80
2022/04/11 04:39:07;;;;;;;1.90;1.33;;;3.50;99.90;;;;;;5004363;28;20046;-80
2022/04/11 04:41:33;;;;;;;0.83;0.83;;;3.50;99.90;;;;;;5002269;28;20042;-81
2022/04/11 04:43:59;;;;;;;7.20;2.20;;;3.50;99.90;;;;;;5021395;28;20045;-80
2022/04/11 04:46:24;;;;;;;1.13;1.10;;;3.50;99.90;;;;;;5008251;28;20045;-80
2022/04/11 04:48:50;;;;;;;1.30;1.20;;;3.50;99.90;;;;;;5023326;28;20049;-80
2022/04/11 04:51:19;;;;;;;1.77;1.27;;;3.50;99.90;;;;;;5023251;28;20439;-80
2022/04/11 04:53:44;;;;;;;1.17;1.17;;;3.50;99.90;;;;;;5000756;28;20054;-81
2022/04/11 04:56:10;;;;;;;2.83;2.20;;;3.50;99.90;;;;;;5001256;28;20559;-81
2022/04/11 04:58:35;;;;;;;4.50;2.20;;;3.50;99.90;;;;;;5003770;28;20582;-81
2022/04/11 05:01:01;;;;;;;3.33;1.43;;;3.50;99.90;;;;;;5003119;28;20046;-82
2022/04/11 05:03:26;;;;;;;2.03;1.83;;;3.60;99.90;;;;;;5017959;28;20053;-82
2022/04/11 05:05:52;;;;;;;0.83;0.83;;;3.60;99.90;;;;;;5003096;28;20049;-81
2022/04/11 05:08:17;;;;;;;3.00;1.83;;;3.60;99.90;;;;;;5002708;28;20124;-82
2022/04/11 05:10:43;;;;;;;2.13;2.00;;;3.60;99.90;;;;;;5002468;28;20100;-82
2022/04/11 05:13:09;;;;;;;2.60;2.17;;;3.60;99.90;;;;;;5002829;28;20318;-82
2022/04/11 05:15:34;;;;;;;1.37;0.70;;;3.60;99.90;;;;;;5003176;28;20046;-82
2022/04/11 05:18:00;;;;;;;1.93;1.40;;;3.60;99.90;;;;;;5002933;28;20042;-81
2022/04/11 05:20:25;;;;;;;5.13;1.30;;;3.60;99.90;;;;;;5002601;28;20053;-80
2022/04/11 05:22:51;;;;;;;1.30;1.27;;;3.60;99.90;;;;;;4985339;28;20050;-81
2022/04/11 05:25:17;;;;;;;1.07;1.07;;;3.60;99.90;;;;;;5011955;28;20041;-83
2022/04/11 05:27:42;;;;;;;1.23;1.10;;;3.60;99.90;;;;;;5019688;28;20045;-82
2022/04/11 05:30:08;;;;;;;2.73;1.40;;;3.60;99.90;;;;;;5022487;28;20048;-81
2022/04/11 05:32:34;;;;;;;2.40;1.67;;;3.70;99.90;;;;;;4988628;28;20550;-82
2022/04/11 05:35:00;;;;;;;1.13;1.00;;;3.70;99.90;;;;;;5022330;28;20535;-82
2022/04/11 05:37:25;;;;;;;3.70;0.90;;;3.70;99.90;;;;;;5021905;28;20060;-83
2022/04/11 05:39:51;;;;;;;1.47;1.13;;;3.70;99.90;;;;;;5007378;28;20038;-84
2022/04/11 05:42:16;;;;;;;2.37;1.37;;;3.80;99.90;;;;;;5001110;28;20037;-82
2022/04/11 05:44:42;;;;;;;1.47;1.37;;;3.80;99.90;;;;;;5016967;28;20037;-85
2022/04/11 05:47:08;;;;;;;1.20;1.10;;;3.70;99.90;;;;;;5000508;28;20448;-85
2022/04/11 05:49:33;;;;;;;4.47;2.10;;;3.80;99.90;;;;;;5000690;28;20608;-84
2022/04/11 05:51:59;;;;;;;0.73;0.73;;;3.80;99.90;;;;;;5001751;28;20730;-86
2022/04/11 05:54:24;;;;;;;1.10;1.10;;;3.80;99.90;;;;;;5014810;28;20046;-86
2022/04/11 05:56:50;;;;;;;1.23;1.20;;;3.80;99.90;;;;;;5000281;28;20037;-86
2022/04/11 05:59:16;;;;;;;1.97;1.57;;;3.80;99.90;;;;;;4984290;28;20479;-86
2022/04/11 06:01:41;;;;;;;3.47;2.20;;;3.80;99.90;;;;;;4984080;28;20038;-87
2022/04/11 06:04:07;;;;;;;0.70;0.47;;;3.90;99.90;;;;;;4985327;28;20058;-85
2022/04/11 06:06:32;;;;;;;1.10;1.10;;;3.90;99.90;;;;;;5001332;28;20064;-86
2022/04/11 06:08:58;;;;;;;1.63;1.47;;;3.90;99.90;;;;;;5001291;28;20133;-85
2022/04/11 06:11:23;;;;;;;1.53;1.43;;;3.90;99.90;;;;;;4998817;28;20046;-82
2022/04/11 06:13:49;;;;;;;1.43;0.90;;;3.90;99.90;;;;;;4996457;28;20119;-77
2022/04/11 06:16:15;;;;;;;1.83;1.67;;;4.00;99.90;;;;;;4990238;28;20077;-79
2022/04/11 06:18:40;;;;;;;1.27;0.70;;;4.00;99.90;;;;;;5000197;28;20439;-81
2022/04/11 06:21:06;;;;;;;2.93;1.73;;;4.00;99.90;;;;;;5000612;28;20129;-81
2022/04/11 06:23:32;;;;;;;0.80;0.80;;;4.10;99.90;;;;;;4999767;28;20038;-81
2022/04/11 06:25:58;;;;;;;1.27;1.17;;;4.10;99.90;;;;;;4999736;28;20048;-81
2022/04/11 06:28:24;;;;;;;1.80;1.00;;;4.10;99.90;;;;;;4982963;28;20085;-81
2022/04/11 06:30:50;;;;;;;1.20;1.00;;;4.10;99.90;;;;;;5000411;28;20092;-83
2022/04/11 06:33:16;;;;;;;0.77;0.73;;;4.20;99.90;;;;;;4980284;28;20034;-88
2022/04/11 06:35:41;;;;;;;1.50;1.27;;;4.20;99.90;;;;;;4983216;28;20053;-86
2022/04/11 06:38:07;;;;;;;1.60;1.50;;;4.20;99.90;;;;;;4983757;28;20038;-88
2022/04/11 06:40:32;;;;;;;1.73;1.63;;;4.20;99.90;;;;;;5000064;28;20540;-86
2022/04/11 06:42:58;;;;;;;1.40;1.23;;;4.20;99.90;;;;;;5000868;28;20253;-87
2022/04/11 06:45:23;;;;;;;2.87;1.80;;;4.30;99.90;;;;;;4985745;28;20045;-88
2022/04/11 06:47:49;;;;;;;1.17;1.17;;;4.30;99.90;;;;;;5001671;28;20400;-88
2022/04/11 06:50:15;;;;;;;1.53;1.37;;;4.40;99.90;;;;;;4986905;28;20056;-87
2022/04/11 06:52:41;;;;;;;1.27;1.23;;;4.40;99.90;;;;;;4986482;28;20030;-83
2022/04/11 06:55:07;;;;;;;1.73;1.07;;;4.40;99.90;;;;;;5004622;28;20152;-83
2022/04/11 06:57:32;;;;;;;24.27;1.80;;;4.40;99.90;;;;;;5003416;28;20037;-82
2022/04/11 06:59:58;;;;;;;1.33;1.30;;;4.50;99.90;;;;;;5003846;28;20038;-82
2022/04/11 07:02:24;;;;;;;2.93;2.27;;;4.50;99.90;;;;;;4977207;28;20049;-89
2022/04/11 07:04:49;;;;;;;0.93;0.93;;;4.50;99.90;;;;;;4993727;28;20053;-90
2022/04/11 07:07:19;;;;;;;1.33;1.00;;;4.60;99.90;;;;;;4986091;28;20038;-86
2022/04/11 07:09:45;;;;;;;1.43;1.20;;;4.60;99.90;;;;;;5004369;28;20088;-90
2022/04/11 07:12:11;;;;;;;1.87;1.73;;;4.60;99.90;;;;;;5002445;28;20081;-89
2022/04/11 07:14:37;;;;;;;1.00;1.00;;;4.70;99.90;;;;;;5005425;28;20602;-90
2022/04/11 07:17:03;;;;;;;1.03;1.00;;;4.70;99.90;;;;;;5012529;28;20496;-91
2022/04/11 07:19:28;;;;;;;1.00;0.90;;;4.70;99.90;;;;;;5016489;28;20049;-91
2022/04/11 07:21:54;;;;;;;1.33;1.17;;;4.80;99.90;;;;;;5018129;28;20049;-83
2022/04/11 07:24:20;;;;;;;1.37;1.27;;;4.80;99.90;;;;;;5002340;28;20038;-85
2022/04/11 07:26:45;;;;;;;2.03;1.93;;;4.90;99.90;;;;;;5007081;28;20172;-86
2022/04/11 07:29:11;;;;;;;16.73;2.37;;;4.90;99.90;;;;;;4986825;28;20049;-87
2022/04/11 07:31:37;;;;;;;1.65;0.63;;;5.00;99.90;;;;;;4970786;28;20053;-87
2022/04/11 07:34:03;;;;;;;2.53;2.33;;;5.00;99.90;;;;;;4991679;28;20037;-87
2022/04/11 07:36:28;;;;;;;1.60;1.10;;;5.00;99.90;;;;;;4989561;28;20464;-87
2022/04/11 07:38:57;;;;;;;3.40;1.83;;;5.10;99.90;;;;;;5003131;28;20184;-87
2022/04/11 07:41:25;;;;;;;0.90;0.90;;;5.10;99.90;;;;;;5002605;28;20048;-86
2022/04/11 07:43:53;;;;;;;1.33;1.23;;;5.20;99.90;;;;;;5010333;28;20044;-90
2022/04/11 07:46:19;;;;;;;0.85;0.85;;;5.20;99.90;;;;;;4989476;28;20554;-90
2022/04/11 07:48:44;;;;;;;1.73;1.63;;;5.20;99.90;;;;;;4987394;28;20053;-90
2022/04/11 07:51:11;;;;;;;2.33;2.13;;;5.30;99.90;;;;;;5006487;28;20033;-89
2022/04/11 07:53:36;;;;;;;1.70;1.60;;;5.30;99.90;;;;;;4987508;28;20051;-90
2022/04/11 07:56:02;;;;;;;3.13;1.98;;;5.40;99.90;;;;;;4985056;28;20538;-88
2022/04/11 07:58:28;;;;;;;2.25;1.42;;;5.50;99.90;;;;;;5002582;28;20034;-89
2022/04/11 08:00:53;;;;;;;1.75;1.65;;;5.50;99.90;;;;;;4987469;28;20046;-89
2022/04/11 08:03:20;;;;;;;1.75;1.60;;;5.60;99.90;;;;;;4984819;28;20093;-89
2022/04/11 08:05:46;;;;;;;3.30;1.88;;;5.60;99.90;;;;;;5022910;28;20049;-90
2022/04/11 08:08:12;;;;;;;2.42;2.22;;;5.70;99.90;;;;;;5023899;28;20034;-90
2022/04/11 08:10:38;;;;;;;3.28;2.28;;;5.70;99.90;;;;;;5004901;28;20448;-89
2022/04/11 08:13:03;;;;;;;1.47;1.37;;;5.80;99.90;;;;;;5006207;28;20223;-89
2022/04/11 08:15:31;;;;;;;1.35;1.35;;;5.80;99.90;;;;;;5005730;28;20157;-89
2022/04/11 08:17:58;;;;;;;1.65;1.40;;;5.80;99.90;;;;;;5020251;28;20045;-88
2022/04/11 08:20:25;;;;;;;1.30;1.20;;;5.90;99.90;;;;;;5003765;28;20053;-90
2022/04/11 08:22:50;;;;;;;0.98;0.98;;;5.90;99.90;;;;;;5005243;28;20044;-89
2022/04/11 08:25:16;;;;;;;3.20;1.77;;;6.00;99.90;;;;;;5020452;28;20612;-87
2022/04/11 08:27:42;;;;;;;2.72;2.22;;;6.00;99.90;;;;;;5022133;28;20037;-87
2022/04/11 08:30:10;;;;;;;4.90;1.27;;;6.10;99.90;;;;;;5021731;28;20033;-86
2022/04/11 08:32:45;;;;;;;1.48;1.30;;;6.20;99.90;;;;;;5003462;28;20077;-87
2022/04/11 08:35:11;;;;;;;3.47;1.55;;;6.30;99.90;;;;;;5020623;28;20500;-95
2022/04/11 08:37:40;;;;;;;3.75;1.63;;;6.40;99.90;;;;;;5022550;28;20045;-86
2022/04/11 08:40:06;;;;;;;3.15;1.42;;;6.40;99.90;;;;;;5002439;28;20136;-88
2022/04/11 08:42:31;;;;;;;1.48;1.38;;;6.50;99.90;;;;;;5020649;28;20600;-82
2022/04/11 08:44:57;;;;;;;2.38;1.35;;;6.50;99.90;;;;;;5021359;28;20042;-80
2022/04/11 08:47:23;;;;;;;5.18;0.60;;;6.50;99.90;;;;;;5002793;28;20269;-82
2022/04/11 08:49:50;;;;;;;1.00;1.00;;;6.50;99.90;;;;;;5021165;28;20566;-81
2022/04/11 08:52:17;;;;;;;1.48;0.80;;;6.60;99.90;;;;;;5003148;28;20026;-87
2022/04/11 08:54:43;;;;;;;0.98;0.98;;;6.60;99.90;;;;;;5022526;28;20456;-85
2022/04/11 08:57:09;;;;;;;2.50;1.05;;;6.70;99.90;;;;;;5020361;28;20576;-87
2022/04/11 08:59:34;;;;;;;1.40;1.30;;;6.70;99.90;;;;;;5021021;28;20045;-89
2022/04/11 09:02:00;;;;;;;1.52;1.42;;;6.70;99.90;;;;;;5021137;28;20041;-86
2022/04/11 09:04:25;;;;;;;0.98;0.90;;;6.80;99.90;;;;;;5021073;28;20055;-92
2022/04/11 09:06:56;;;;;;;2.80;1.25;;;6.80;99.90;;;;;;5020552;28;20048;-85
2022/04/11 09:09:37;;;;;;;13.90;0.95;;;6.90;99.90;;;;;;5002363;28;20103;-87
2022/04/11 09:12:03;;;;;;;1.17;1.08;;;6.90;99.90;;;;;;5011969;28;20120;-89
2022/04/11 09:14:29;;;;;;;2.03;1.13;;;6.90;99.90;;;;;;4984752;28;20164;-88
2022/04/11 09:16:54;;;;;;;1.65;1.35;;;7.00;99.90;;;;;;5020571;28;20042;-80
2022/04/11 09:19:29;;;;;;;2.90;1.25;;;7.00;99.90;;;;;;5015837;28;20443;-82
2022/04/11 09:21:54;;;;;;;3.78;1.95;;;7.00;99.90;;;;;;5020523;28;20119;-94
2022/04/11 09:24:22;;;;;;;0.70;0.60;;;7.10;99.90;;;;;;5001796;28;20090;-81
2022/04/11 09:26:50;;;;;;;0.98;0.98;;;7.20;99.90;;;;;;5001158;28;20046;-80
2022/04/11 09:29:15;;;;;;;3.20;1.85;;;7.20;99.90;;;;;;5019322;28;20037;-82
2022/04/11 09:31:41;;;;;;;0.68;0.68;;;7.30;99.90;;;;;;5004675;28;20104;-79
2022/04/11 09:34:14;;;;;;;0.93;0.93;;;7.30;99.90;;;;;;5009154;28;20128;-87
2022/04/11 09:37:01;;;;;;;15.52;1.65;;;7.30;99.90;;;;;;5010965;28;20033;-87
2022/04/11 09:39:32;;;;;;;1.10;1.10;;;7.40;99.90;;;;;;5002051;28;20042;-96
2022/04/11 09:41:58;;;;;;;0.60;0.55;;;7.40;99.90;;;;;;4988320;28;20034;-93
2022/04/11 09:44:34;;;;;;;3.65;1.17;;;7.50;99.90;;;;;;5008499;28;20049;-94
2022/04/11 09:47:04;;;;;;;2.05;1.95;;;7.50;99.90;;;;;;4984506;28;20049;-81
2022/04/11 09:49:31;;;;;;;1.17;1.10;;;7.60;99.90;;;;;;4974177;28;20384;-87
2022/04/11 09:52:12;;;;;;;1.08;0.98;;;7.70;99.90;;;;;;4983789;28;20102;-93
2022/04/11 09:54:38;;;;;;;2.65;1.65;;;7.70;99.90;;;;;;4989716;28;20052;-86
2022/04/11 09:57:05;;;;;;;2.75;1.17;;;7.80;99.90;;;;;;4969143;28;20073;-91
2022/04/11 09:59:32;;;;;;;3.10;2.10;;;7.80;99.90;;;;;;5000760;28;21136;-93
2022/04/11 10:01:58;;;;;;;6.63;1.38;;;7.90;99.90;;;;;;4987692;28;20045;-83
2022/04/11 10:04:27;;;;;;;1.08;1.02;;;7.90;99.90;;;;;;5020984;28;20061;-86
2022/04/11 10:06:53;;;;;;;4.43;1.65;;;7.90;99.90;;;;;;5028370;28;20512;-84
2022/04/11 10:09:21;;;;;;;1.30;1.23;;;8.00;99.90;;;;;;5002511;28;20033;-85
2022/04/11 10:11:48;;;;;;;1.85;1.20;;;8.00;99.90;;;;;;4997818;28;20041;-84
2022/04/11 10:14:17;;;;;;;2.00;1.55;;;8.00;99.90;;;;;;5002395;28;20057;-82
2022/04/11 10:16:44;;;;;;;8.38;2.47;;;8.00;99.90;;;;;;5002880;28;20447;-81
2022/04/11 10:19:11;;;;;;;6.50;2.25;;;8.10;99.90;;;;;;4986624;28;20431;-81
2022/04/11 10:21:40;;;;;;;1.88;1.63;;;8.10;99.90;;;;;;5026464;28;20051;-89
2022/04/11 10:24:25;;;;;;;2.63;2.42;;;8.10;99.90;;;;;;5032134;28;20072;-82
2022/04/11 10:26:56;;;;;;;2.67;1.02;;;8.20;99.90;;;;;;5028615;28;20044;-85
2022/04/11 10:29:36;;;;;;;2.08;1.20;;;8.20;99.90;;;;;;5023560;28;20068;-82
2022/04/11 10:32:10;;;;;;;1.40;1.30;;;8.20;99.90;;;;;;5030376;28;20052;-82
2022/04/11 10:34:49;;;;;;;2.05;1.30;;;8.30;99.90;;;;;;5022161;28;20124;-81
2022/04/11 10:37:16;;;;;;;1.45;1.35;;;8.30;99.90;;;;;;5024053;28;21047;-82
2022/04/11 10:39:46;;;;;;;2.20;2.00;;;8.40;99.90;;;;;;5023684;28;20050;-82
2022/04/11 10:42:13;;;;;;;2.65;1.83;;;8.40;99.90;;;;;;5022783;28;20583;-81
2022/04/11 10:44:50;;;;;;;3.97;1.60;;;8.40;99.90;;;;;;5006405;28;20041;-83
2022/04/11 10:47:16;;;;;;;1.48;1.38;;;8.40;99.90;;;;;;5026435;28;20100;-82
2022/04/11 10:49:45;;;;;;;1.65;1.45;;;8.40;99.90;;;;;;5036543;28;20048;-82
2022/04/11 10:52:31;;;;;;;1.60;1.50;;;8.50;99.90;;;;;;5027176;28;20425;-82
2022/04/11 10:55:10;;;;;;;1.08;0.93;;;8.50;99.90;;;;;;5019858;28;20094;-82
2022/04/11 10:57:46;;;;;;;10.75;2.15;;;8.50;99.90;;;;;;4987795;28;20577;-82
2022/04/11 11:00:17;;;;;;;2.80;2.25;;;8.60;99.90;;;;;;5019717;28;20273;-82
2022/04/11 11:02:59;;;;;;;3.50;1.50;;;8.60;99.90;;;;;;5031727;28;20085;-83
2022/04/11 11:05:45;;;;;;;5.28;1.70;;;8.60;99.90;;;;;;5022437;28;20137;-82
2022/04/11 11:08:11;;;;;;;1.98;1.88;;;8.60;99.90;;;;;;5008192;28;20063;-82
2022/04/11 11:10:49;;;;;;;4.28;1.85;;;8.70;99.90;;;;;;5004943;28;20088;-83
2022/04/11 11:13:39;;;;;;;2.28;1.63;;;8.80;99.90;;;;;;5007279;28;20042;-82
2022/04/11 11:16:07;;;;;;;5.50;1.63;;;8.80;99.90;;;;;;5024381;28;20048;-83
2022/04/11 11:18:48;;;;;;;3.63;2.33;;;8.80;99.90;;;;;;5005810;28;20673;-85
2022/04/11 11:21:33;;;;;;;2.10;1.73;;;8.80;99.90;;;;;;5035695;28;20099;-86
2022/04/11 11:24:06;;;;;;;6.40;1.65;;;8.90;99.90;;;;;;5003282;28;20084;-85
2022/04/11 11:26:52;;;;;;;1.65;1.45;;;9.00;99.90;;;;;;5009612;28;20049;-86
2022/04/11 11:29:20;;;;;;;1.85;1.33;;;9.00;99.90;;;;;;4992787;28;20328;-86
2022/04/11 11:31:48;;;;;;;1.25;1.15;;;9.10;99.90;;;;;;5007005;28;20120;-94
2022/04/11 11:34:16;;;;;;;4.60;2.58;;;9.10;99.90;;;;;;5023210;28;20115;-94
2022/04/11 11:36:42;;;;;;;1.38;1.27;;;9.10;99.90;;;;;;5007405;28;20049;-92
2022/04/11 11:39:18;;;;;;;2.85;2.17;;;9.10;99.90;;;;;;5024103;28;20048;-91
2022/04/11 11:41:45;;;;;;;7.40;1.75;;;9.10;99.90;;;;;;5003957;28;20058;-93
2022/04/11 11:44:11;;;;;;;3.60;2.67;;;9.20;99.90;;;;;;4987816;28;20238;-92
2022/04/11 11:46:49;;;;;;;2.13;1.98;;;9.10;99.90;;;;;;5033550;28;20495;-93
2022/04/11 11:49:15;;;;;;;1.83;1.73;;;9.20;99.90;;;;;;4994043;28;20081;-93
2022/04/11 11:51:41;;;;;;;2.72;2.53;;;9.20;99.90;;;;;;5008378;28;20481;-95
2022/04/11 11:54:07;;;;;;;2.20;1.98;;;9.30;99.90;;;;;;5008095;28;20049;-95
2022/04/11 11:56:58;;;;;;;4.07;2.55;;;9.30;99.90;;;;;;5025907;28;20126;-93
2022/04/11 11:59:25;;;;;;;2.80;2.00;;;9.30;99.90;;;;;;5007693;28;20057;-95
2022/04/11 12:04:35;;;;;;;2.42;2.22;;;9.30;99.90;;;;;;5025888;28;20081;-83
2022/04/11 12:07:01;;;;;;;4.88;3.20;;;9.30;99.90;;;;;;5025055;28;20306;-83
2022/04/11 12:09:38;;;;;;;4.20;2.80;;;9.40;99.90;;;;;;5040911;28;20551;-83
2022/04/11 12:12:05;;;;;;;6.88;3.88;;;9.40;99.90;;;;;;5018075;28;20135;-83
2022/04/11 12:15:07;;;;;;;10.38;2.85;;;9.40;99.90;;;;;;5016486;28;20038;-84
2022/04/11 12:17:42;;;;;;;2.92;2.70;;;9.40;99.90;;;;;;5007564;28;20096;-79
2022/04/11 12:20:12;;;;;;;20.35;3.47;;;9.40;99.90;;;;;;5008399;28;20063;-85
2022/04/11 12:22:39;;;;;;;3.53;2.40;;;9.50;99.90;;;;;;5025286;28;20051;-85
2022/04/11 12:25:25;;;;;;;3.55;3.25;;;9.50;99.90;;;;;;5017322;28;20695;-86
2022/04/11 12:27:51;;;;;;;4.25;2.58;;;9.50;99.90;;;;;;5007623;28;20041;-81
2022/04/11 12:30:17;;;;;;;5.90;2.95;;;9.50;99.90;;;;;;5022157;28;20503;-77
2022/04/11 12:32:43;;;;;;;3.13;2.17;;;9.50;99.90;;;;;;5025621;28;20128;-80
2022/04/11 12:35:19;;;;;;;2.92;2.28;;;9.50;99.90;;;;;;5041502;28;20118;-80
2022/04/11 12:37:49;;;;;;;2.17;2.08;;;9.60;99.90;;;;;;5041960;28;20045;-81
2022/04/11 12:40:16;;;;;;;7.15;2.95;;;9.60;99.90;;;;;;5040958;28;20049;-80
2022/04/11 12:42:41;;;;;;;2.30;2.03;;;9.60;99.90;;;;;;5020942;28;20050;-91
2022/04/11 12:45:09;;;;;;;4.22;2.83;;;9.60;99.90;;;;;;5012021;28;20144;-94
2022/04/11 12:48:07;;;;;;;7.93;3.65;;;9.70;99.90;;;;;;5034999;28;20444;-82
2022/04/11 12:50:33;;;;;;;5.80;2.28;;;9.70;99.90;;;;;;5004838;28;20351;-78
2022/04/11 12:52:59;;;;;;;2.95;2.63;;;9.80;99.90;;;;;;5027068;28;20105;-78
2022/04/11 12:55:31;;;;;;;2.47;2.28;;;9.80;99.90;;;;;;5040584;28;20611;-78
2022/04/11 12:58:08;;;;;;;2.78;2.58;;;9.80;99.90;;;;;;5028273;28;20046;-79
2022/04/11 13:00:36;;;;;;;3.28;2.22;;;9.90;99.90;;;;;;5034602;28;20052;-79
2022/04/11 13:03:02;;;;;;;2.88;2.38;;;9.80;99.90;;;;;;5003510;28;20038;-79